<?xml version="1.0" encoding="UTF-8" standalone="no" ?>
<gpx xmlns="http://www.topografix.com/GPX/1/1" xmlns:xsi="http://www.w3.org/2001/XMLSchema-instance" xsi:schemaLocation="http://www.topografix.com/GPX/1/1 http://www.topografix.com/GPX/1/1/gpx.xsd" version="1.1" creator="VisuGPX - https://www.visugpx.com">
  <metadata>
    <name>Jour 1 Plomb à Raulhac</name>
  </metadata>
  <trk>
    <name><![CDATA[11685755-GR465 par Montsalvy]]></name>
    <trkseg>
      <trkpt lat="45.05726" lon="2.76165">
        <ele>1814</ele>
        <time>2020-07-16T12:34:02Z</time>
      </trkpt>
      <trkpt lat="45.05758" lon="2.76143">
        <ele>1813</ele>
        <time>2020-07-16T12:34:50Z</time>
      </trkpt>
      <trkpt lat="45.05699" lon="2.76111">
        <ele>1813</ele>
        <time>2020-07-16T12:36:14Z</time>
      </trkpt>
      <trkpt lat="45.05652" lon="2.76034">
        <ele>1808</ele>
        <time>2020-07-16T12:37:50Z</time>
      </trkpt>
      <trkpt lat="45.05621" lon="2.7592">
        <ele>1796</ele>
        <time>2020-07-16T12:39:45Z</time>
      </trkpt>
      <trkpt lat="45.05579" lon="2.75827">
        <ele>1790</ele>
        <time>2020-07-16T12:41:29Z</time>
      </trkpt>
      <trkpt lat="45.05534" lon="2.75764">
        <ele>1774</ele>
        <time>2020-07-16T12:42:53Z</time>
      </trkpt>
      <trkpt lat="45.05492" lon="2.75674">
        <ele>1766</ele>
        <time>2020-07-16T12:44:35Z</time>
      </trkpt>
      <trkpt lat="45.0547" lon="2.75598">
        <ele>1766</ele>
        <time>2020-07-16T12:45:53Z</time>
      </trkpt>
      <trkpt lat="45.05456" lon="2.75535">
        <ele>1770</ele>
        <time>2020-07-16T12:46:55Z</time>
      </trkpt>
      <trkpt lat="45.05457" lon="2.75462">
        <ele>1768</ele>
        <time>2020-07-16T12:48:04Z</time>
      </trkpt>
      <trkpt lat="45.05414" lon="2.75411">
        <ele>1768</ele>
        <time>2020-07-16T12:49:18Z</time>
      </trkpt>
      <trkpt lat="45.05358" lon="2.75416">
        <ele>1757</ele>
        <time>2020-07-16T12:50:33Z</time>
      </trkpt>
      <trkpt lat="45.05302" lon="2.75426">
        <ele>1746</ele>
        <time>2020-07-16T12:51:49Z</time>
      </trkpt>
      <trkpt lat="45.05248" lon="2.75435">
        <ele>1735</ele>
        <time>2020-07-16T12:53:01Z</time>
      </trkpt>
      <trkpt lat="45.05214" lon="2.75431">
        <ele>1731</ele>
        <time>2020-07-16T12:53:47Z</time>
      </trkpt>
      <trkpt lat="45.05158" lon="2.75358">
        <ele>1710</ele>
        <time>2020-07-16T12:55:28Z</time>
      </trkpt>
      <trkpt lat="45.05106" lon="2.75326">
        <ele>1703</ele>
        <time>2020-07-16T12:56:44Z</time>
      </trkpt>
      <trkpt lat="45.05046" lon="2.75313">
        <ele>1693</ele>
        <time>2020-07-16T12:58:05Z</time>
      </trkpt>
      <trkpt lat="45.04998" lon="2.75325">
        <ele>1687</ele>
        <time>2020-07-16T12:59:10Z</time>
      </trkpt>
      <trkpt lat="45.04936" lon="2.75296">
        <ele>1681</ele>
        <time>2020-07-16T13:00:37Z</time>
      </trkpt>
      <trkpt lat="45.0488" lon="2.75245">
        <ele>1680</ele>
        <time>2020-07-16T13:02:06Z</time>
      </trkpt>
      <trkpt lat="45.04824" lon="2.752">
        <ele>1676</ele>
        <time>2020-07-16T13:03:32Z</time>
      </trkpt>
      <trkpt lat="45.04765" lon="2.75136">
        <ele>1678</ele>
        <time>2020-07-16T13:05:11Z</time>
      </trkpt>
      <trkpt lat="45.04723" lon="2.75041">
        <ele>1668</ele>
        <time>2020-07-16T13:06:57Z</time>
      </trkpt>
      <trkpt lat="45.04656" lon="2.74996">
        <ele>1677</ele>
        <time>2020-07-16T13:08:36Z</time>
      </trkpt>
      <trkpt lat="45.04584" lon="2.74951">
        <ele>1672</ele>
        <time>2020-07-16T13:10:21Z</time>
      </trkpt>
      <trkpt lat="45.04525" lon="2.74957">
        <ele>1689</ele>
        <time>2020-07-16T13:11:40Z</time>
      </trkpt>
      <trkpt lat="45.04478" lon="2.74909">
        <ele>1683</ele>
        <time>2020-07-16T13:12:57Z</time>
      </trkpt>
      <trkpt lat="45.04434" lon="2.74858">
        <ele>1680</ele>
        <time>2020-07-16T13:14:13Z</time>
      </trkpt>
      <trkpt lat="45.04382" lon="2.74829">
        <ele>1690</ele>
        <time>2020-07-16T13:15:28Z</time>
      </trkpt>
      <trkpt lat="45.0433" lon="2.74762">
        <ele>1688</ele>
        <time>2020-07-16T13:17:01Z</time>
      </trkpt>
      <trkpt lat="45.04274" lon="2.74707">
        <ele>1688</ele>
        <time>2020-07-16T13:18:32Z</time>
      </trkpt>
      <trkpt lat="45.04245" lon="2.74682">
        <ele>1692</ele>
        <time>2020-07-16T13:19:18Z</time>
      </trkpt>
      <trkpt lat="45.04232" lon="2.74596">
        <ele>1684</ele>
        <time>2020-07-16T13:20:41Z</time>
      </trkpt>
      <trkpt lat="45.04185" lon="2.74548">
        <ele>1687</ele>
        <time>2020-07-16T13:21:58Z</time>
      </trkpt>
      <trkpt lat="45.04118" lon="2.74468">
        <ele>1673</ele>
        <time>2020-07-16T13:23:55Z</time>
      </trkpt>
      <trkpt lat="45.04082" lon="2.74414">
        <ele>1668</ele>
        <time>2020-07-16T13:25:05Z</time>
      </trkpt>
      <trkpt lat="45.0404" lon="2.74347">
        <ele>1659</ele>
        <time>2020-07-16T13:26:29Z</time>
      </trkpt>
      <trkpt lat="45.03995" lon="2.74302">
        <ele>1656</ele>
        <time>2020-07-16T13:27:43Z</time>
      </trkpt>
      <trkpt lat="45.03957" lon="2.74258">
        <ele>1655</ele>
        <time>2020-07-16T13:28:49Z</time>
      </trkpt>
      <trkpt lat="45.03885" lon="2.74222">
        <ele>1648</ele>
        <time>2020-07-16T13:30:30Z</time>
      </trkpt>
      <trkpt lat="45.03813" lon="2.742">
        <ele>1638</ele>
        <time>2020-07-16T13:32:09Z</time>
      </trkpt>
      <trkpt lat="45.03739" lon="2.74136">
        <ele>1631</ele>
        <time>2020-07-16T13:34:04Z</time>
      </trkpt>
      <trkpt lat="45.03676" lon="2.74091">
        <ele>1626</ele>
        <time>2020-07-16T13:35:39Z</time>
      </trkpt>
      <trkpt lat="45.03625" lon="2.74059">
        <ele>1617</ele>
        <time>2020-07-16T13:36:53Z</time>
      </trkpt>
      <trkpt lat="45.03573" lon="2.74023">
        <ele>1613</ele>
        <time>2020-07-16T13:38:10Z</time>
      </trkpt>
      <trkpt lat="45.03506" lon="2.73994">
        <ele>1617</ele>
        <time>2020-07-16T13:39:44Z</time>
      </trkpt>
      <trkpt lat="45.03447" lon="2.73984">
        <ele>1624</ele>
        <time>2020-07-16T13:41:03Z</time>
      </trkpt>
      <trkpt lat="45.03375" lon="2.73993">
        <ele>1629</ele>
        <time>2020-07-16T13:42:40Z</time>
      </trkpt>
      <trkpt lat="45.03333" lon="2.73939">
        <ele>1630</ele>
        <time>2020-07-16T13:43:55Z</time>
      </trkpt>
      <trkpt lat="45.03286" lon="2.73879">
        <ele>1624</ele>
        <time>2020-07-16T13:45:20Z</time>
      </trkpt>
      <trkpt lat="45.0325" lon="2.7385">
        <ele>1621</ele>
        <time>2020-07-16T13:46:15Z</time>
      </trkpt>
      <trkpt lat="45.03178" lon="2.73811">
        <ele>1620</ele>
        <time>2020-07-16T13:47:58Z</time>
      </trkpt>
      <trkpt lat="45.03124" lon="2.73747">
        <ele>1617</ele>
        <time>2020-07-16T13:49:32Z</time>
      </trkpt>
      <trkpt lat="45.0307" lon="2.73722">
        <ele>1612</ele>
        <time>2020-07-16T13:50:48Z</time>
      </trkpt>
      <trkpt lat="45.0303" lon="2.73687">
        <ele>1606</ele>
        <time>2020-07-16T13:51:51Z</time>
      </trkpt>
      <trkpt lat="45.02976" lon="2.73639">
        <ele>1599</ele>
        <time>2020-07-16T13:53:16Z</time>
      </trkpt>
      <trkpt lat="45.02916" lon="2.73597">
        <ele>1593</ele>
        <time>2020-07-16T13:54:45Z</time>
      </trkpt>
      <trkpt lat="45.02772" lon="2.73485">
        <ele>1583</ele>
        <time>2020-07-16T13:58:24Z</time>
      </trkpt>
      <trkpt lat="45.0271" lon="2.73392">
        <ele>1584</ele>
        <time>2020-07-16T14:00:25Z</time>
      </trkpt>
      <trkpt lat="45.02627" lon="2.73294">
        <ele>1585</ele>
        <time>2020-07-16T14:02:49Z</time>
      </trkpt>
      <trkpt lat="45.02562" lon="2.73227">
        <ele>1584</ele>
        <time>2020-07-16T14:04:36Z</time>
      </trkpt>
      <trkpt lat="45.02445" lon="2.7321">
        <ele>1569</ele>
        <time>2020-07-16T14:07:13Z</time>
      </trkpt>
      <trkpt lat="45.02344" lon="2.73212">
        <ele>1557</ele>
        <time>2020-07-16T14:09:28Z</time>
      </trkpt>
      <trkpt lat="45.02293" lon="2.73218">
        <ele>1553</ele>
        <time>2020-07-16T14:10:36Z</time>
      </trkpt>
      <trkpt lat="45.02244" lon="2.73221">
        <ele>1549</ele>
        <time>2020-07-16T14:11:42Z</time>
      </trkpt>
      <trkpt lat="45.02208" lon="2.73224">
        <ele>1546</ele>
        <time>2020-07-16T14:12:30Z</time>
      </trkpt>
      <trkpt lat="45.02174" lon="2.73224">
        <ele>1544</ele>
        <time>2020-07-16T14:13:15Z</time>
      </trkpt>
      <trkpt lat="45.02124" lon="2.73204">
        <ele>1542</ele>
        <time>2020-07-16T14:14:25Z</time>
      </trkpt>
      <trkpt lat="45.02088" lon="2.73185">
        <ele>1542</ele>
        <time>2020-07-16T14:15:16Z</time>
      </trkpt>
      <trkpt lat="45.02055" lon="2.73169">
        <ele>1543</ele>
        <time>2020-07-16T14:16:03Z</time>
      </trkpt>
      <trkpt lat="45.01981" lon="2.73143">
        <ele>1543</ele>
        <time>2020-07-16T14:17:44Z</time>
      </trkpt>
      <trkpt lat="45.0194" lon="2.73124">
        <ele>1541</ele>
        <time>2020-07-16T14:18:42Z</time>
      </trkpt>
      <trkpt lat="45.01898" lon="2.73111">
        <ele>1539</ele>
        <time>2020-07-16T14:19:39Z</time>
      </trkpt>
      <trkpt lat="45.01848" lon="2.73098">
        <ele>1537</ele>
        <time>2020-07-16T14:20:47Z</time>
      </trkpt>
      <trkpt lat="45.01801" lon="2.73069">
        <ele>1532</ele>
        <time>2020-07-16T14:21:55Z</time>
      </trkpt>
      <trkpt lat="45.01758" lon="2.73056">
        <ele>1528</ele>
        <time>2020-07-16T14:22:54Z</time>
      </trkpt>
      <trkpt lat="45.01718" lon="2.7304">
        <ele>1523</ele>
        <time>2020-07-16T14:23:50Z</time>
      </trkpt>
      <trkpt lat="45.01684" lon="2.73027">
        <ele>1519</ele>
        <time>2020-07-16T14:24:37Z</time>
      </trkpt>
      <trkpt lat="45.01642" lon="2.73014">
        <ele>1514</ele>
        <time>2020-07-16T14:25:34Z</time>
      </trkpt>
      <trkpt lat="45.01601" lon="2.72991">
        <ele>1510</ele>
        <time>2020-07-16T14:26:33Z</time>
      </trkpt>
      <trkpt lat="45.0152" lon="2.72959">
        <ele>1501</ele>
        <time>2020-07-16T14:28:25Z</time>
      </trkpt>
      <trkpt lat="45.01471" lon="2.72937">
        <ele>1496</ele>
        <time>2020-07-16T14:29:34Z</time>
      </trkpt>
      <trkpt lat="45.01431" lon="2.72921">
        <ele>1493</ele>
        <time>2020-07-16T14:30:29Z</time>
      </trkpt>
      <trkpt lat="45.01392" lon="2.72908">
        <ele>1490</ele>
        <time>2020-07-16T14:31:23Z</time>
      </trkpt>
      <trkpt lat="45.01359" lon="2.72891">
        <ele>1488</ele>
        <time>2020-07-16T14:32:10Z</time>
      </trkpt>
      <trkpt lat="45.01312" lon="2.72866">
        <ele>1485</ele>
        <time>2020-07-16T14:33:17Z</time>
      </trkpt>
      <trkpt lat="45.01282" lon="2.72859">
        <ele>1483</ele>
        <time>2020-07-16T14:33:57Z</time>
      </trkpt>
      <trkpt lat="45.01262" lon="2.7285">
        <ele>1481</ele>
        <time>2020-07-16T14:34:25Z</time>
      </trkpt>
      <trkpt lat="45.0124" lon="2.72837">
        <ele>1480</ele>
        <time>2020-07-16T14:34:57Z</time>
      </trkpt>
      <trkpt lat="45.01212" lon="2.7283">
        <ele>1480</ele>
        <time>2020-07-16T14:35:35Z</time>
      </trkpt>
      <trkpt lat="45.01182" lon="2.72817">
        <ele>1480</ele>
        <time>2020-07-16T14:36:17Z</time>
      </trkpt>
      <trkpt lat="45.01154" lon="2.72808">
        <ele>1479</ele>
        <time>2020-07-16T14:36:55Z</time>
      </trkpt>
      <trkpt lat="45.01127" lon="2.72799">
        <ele>1478</ele>
        <time>2020-07-16T14:37:32Z</time>
      </trkpt>
      <trkpt lat="45.01105" lon="2.7279">
        <ele>1477</ele>
        <time>2020-07-16T14:38:03Z</time>
      </trkpt>
      <trkpt lat="45.01077" lon="2.72782">
        <ele>1476</ele>
        <time>2020-07-16T14:38:41Z</time>
      </trkpt>
      <trkpt lat="45.01021" lon="2.72759">
        <ele>1473</ele>
        <time>2020-07-16T14:39:59Z</time>
      </trkpt>
      <trkpt lat="45.00992" lon="2.72746">
        <ele>1472</ele>
        <time>2020-07-16T14:40:39Z</time>
      </trkpt>
      <trkpt lat="45.0096" lon="2.72735">
        <ele>1473</ele>
        <time>2020-07-16T14:41:23Z</time>
      </trkpt>
      <trkpt lat="45.0092" lon="2.72719">
        <ele>1474</ele>
        <time>2020-07-16T14:42:19Z</time>
      </trkpt>
      <trkpt lat="45.00888" lon="2.72709">
        <ele>1474</ele>
        <time>2020-07-16T14:43:02Z</time>
      </trkpt>
      <trkpt lat="45.00865" lon="2.72701">
        <ele>1474</ele>
        <time>2020-07-16T14:43:34Z</time>
      </trkpt>
      <trkpt lat="45.0082" lon="2.72685">
        <ele>1475</ele>
        <time>2020-07-16T14:44:36Z</time>
      </trkpt>
      <trkpt lat="45.00779" lon="2.72678">
        <ele>1477</ele>
        <time>2020-07-16T14:45:31Z</time>
      </trkpt>
      <trkpt lat="45.0075" lon="2.72665">
        <ele>1478</ele>
        <time>2020-07-16T14:46:12Z</time>
      </trkpt>
      <trkpt lat="45.00707" lon="2.72643">
        <ele>1476</ele>
        <time>2020-07-16T14:47:13Z</time>
      </trkpt>
      <trkpt lat="45.00667" lon="2.72617">
        <ele>1473</ele>
        <time>2020-07-16T14:48:11Z</time>
      </trkpt>
      <trkpt lat="45.00604" lon="2.72598">
        <ele>1469</ele>
        <time>2020-07-16T14:49:37Z</time>
      </trkpt>
      <trkpt lat="45.00559" lon="2.72569">
        <ele>1466</ele>
        <time>2020-07-16T14:50:43Z</time>
      </trkpt>
      <trkpt lat="45.0051" lon="2.72556">
        <ele>1464</ele>
        <time>2020-07-16T14:51:50Z</time>
      </trkpt>
      <trkpt lat="45.00465" lon="2.72527">
        <ele>1462</ele>
        <time>2020-07-16T14:52:56Z</time>
      </trkpt>
      <trkpt lat="45.00422" lon="2.72514">
        <ele>1463</ele>
        <time>2020-07-16T14:53:54Z</time>
      </trkpt>
      <trkpt lat="45.00377" lon="2.72488">
        <ele>1462</ele>
        <time>2020-07-16T14:54:59Z</time>
      </trkpt>
      <trkpt lat="45.00321" lon="2.72459">
        <ele>1461</ele>
        <time>2020-07-16T14:56:19Z</time>
      </trkpt>
      <trkpt lat="45.00265" lon="2.72421">
        <ele>1462</ele>
        <time>2020-07-16T14:57:42Z</time>
      </trkpt>
      <trkpt lat="45.00199" lon="2.72387">
        <ele>1461</ele>
        <time>2020-07-16T14:59:16Z</time>
      </trkpt>
      <trkpt lat="45.00161" lon="2.72366">
        <ele>1461</ele>
        <time>2020-07-16T15:00:10Z</time>
      </trkpt>
      <trkpt lat="45.00106" lon="2.72342">
        <ele>1460</ele>
        <time>2020-07-16T15:01:27Z</time>
      </trkpt>
      <trkpt lat="45.00051" lon="2.72309">
        <ele>1455</ele>
        <time>2020-07-16T15:02:47Z</time>
      </trkpt>
      <trkpt lat="44.99999" lon="2.72283">
        <ele>1449</ele>
        <time>2020-07-16T15:04:00Z</time>
      </trkpt>
      <trkpt lat="44.99964" lon="2.72271">
        <ele>1445</ele>
        <time>2020-07-16T15:04:48Z</time>
      </trkpt>
      <trkpt lat="44.99925" lon="2.72254">
        <ele>1441</ele>
        <time>2020-07-16T15:05:43Z</time>
      </trkpt>
      <trkpt lat="44.9989" lon="2.72239">
        <ele>1439</ele>
        <time>2020-07-16T15:06:31Z</time>
      </trkpt>
      <trkpt lat="44.99849" lon="2.72218">
        <ele>1436</ele>
        <time>2020-07-16T15:07:30Z</time>
      </trkpt>
      <trkpt lat="44.99812" lon="2.72201">
        <ele>1435</ele>
        <time>2020-07-16T15:08:22Z</time>
      </trkpt>
      <trkpt lat="44.99769" lon="2.72181">
        <ele>1435</ele>
        <time>2020-07-16T15:09:22Z</time>
      </trkpt>
      <trkpt lat="44.9972" lon="2.72154">
        <ele>1432</ele>
        <time>2020-07-16T15:10:32Z</time>
      </trkpt>
      <trkpt lat="44.99679" lon="2.72136">
        <ele>1429</ele>
        <time>2020-07-16T15:11:29Z</time>
      </trkpt>
      <trkpt lat="44.99613" lon="2.72104">
        <ele>1421</ele>
        <time>2020-07-16T15:13:03Z</time>
      </trkpt>
      <trkpt lat="44.99551" lon="2.72033">
        <ele>1409</ele>
        <time>2020-07-16T15:14:49Z</time>
      </trkpt>
      <trkpt lat="44.99512" lon="2.71983">
        <ele>1401</ele>
        <time>2020-07-16T15:15:59Z</time>
      </trkpt>
      <trkpt lat="44.9946" lon="2.71918">
        <ele>1389</ele>
        <time>2020-07-16T15:17:32Z</time>
      </trkpt>
      <trkpt lat="44.99408" lon="2.71859">
        <ele>1381</ele>
        <time>2020-07-16T15:19:01Z</time>
      </trkpt>
      <trkpt lat="44.99344" lon="2.71812">
        <ele>1374</ele>
        <time>2020-07-16T15:20:37Z</time>
      </trkpt>
      <trkpt lat="44.9928" lon="2.71777">
        <ele>1369</ele>
        <time>2020-07-16T15:22:09Z</time>
      </trkpt>
      <trkpt lat="44.99235" lon="2.71748">
        <ele>1367</ele>
        <time>2020-07-16T15:23:15Z</time>
      </trkpt>
      <trkpt lat="44.99176" lon="2.71711">
        <ele>1365</ele>
        <time>2020-07-16T15:24:41Z</time>
      </trkpt>
      <trkpt lat="44.99122" lon="2.71681">
        <ele>1362</ele>
        <time>2020-07-16T15:25:58Z</time>
      </trkpt>
      <trkpt lat="44.99079" lon="2.71651">
        <ele>1359</ele>
        <time>2020-07-16T15:27:02Z</time>
      </trkpt>
      <trkpt lat="44.98912" lon="2.71602">
        <ele>1345</ele>
        <time>2020-07-16T15:30:50Z</time>
      </trkpt>
      <trkpt lat="44.98844" lon="2.71584">
        <ele>1338</ele>
        <time>2020-07-16T15:32:22Z</time>
      </trkpt>
      <trkpt lat="44.98792" lon="2.71554">
        <ele>1332</ele>
        <time>2020-07-16T15:33:37Z</time>
      </trkpt>
      <trkpt lat="44.98661" lon="2.71475">
        <ele>1320</ele>
        <time>2020-07-16T15:36:47Z</time>
      </trkpt>
      <trkpt lat="44.98582" lon="2.71387">
        <ele>1307</ele>
        <time>2020-07-16T15:39:01Z</time>
      </trkpt>
      <trkpt lat="44.98522" lon="2.71317">
        <ele>1297</ele>
        <time>2020-07-16T15:40:45Z</time>
      </trkpt>
      <trkpt lat="44.98456" lon="2.71242">
        <ele>1288</ele>
        <time>2020-07-16T15:42:38Z</time>
      </trkpt>
      <trkpt lat="44.98342" lon="2.71156">
        <ele>1282</ele>
        <time>2020-07-16T15:45:31Z</time>
      </trkpt>
      <trkpt lat="44.98273" lon="2.71099">
        <ele>1284</ele>
        <time>2020-07-16T15:47:17Z</time>
      </trkpt>
      <trkpt lat="44.98228" lon="2.71057">
        <ele>1287</ele>
        <time>2020-07-16T15:48:29Z</time>
      </trkpt>
      <trkpt lat="44.98255" lon="2.71002">
        <ele>1285</ele>
        <time>2020-07-16T15:49:32Z</time>
      </trkpt>
      <trkpt lat="44.98408" lon="2.70998">
        <ele>1272</ele>
        <time>2020-07-16T15:52:57Z</time>
      </trkpt>
      <trkpt lat="44.98442" lon="2.7096">
        <ele>1264</ele>
        <time>2020-07-16T15:53:54Z</time>
      </trkpt>
      <trkpt lat="44.98472" lon="2.70916">
        <ele>1255</ele>
        <time>2020-07-16T15:54:52Z</time>
      </trkpt>
      <trkpt lat="44.98347" lon="2.70825">
        <ele>1253</ele>
        <time>2020-07-16T15:58:00Z</time>
      </trkpt>
      <trkpt lat="44.98234" lon="2.70758">
        <ele>1261</ele>
        <time>2020-07-16T16:00:43Z</time>
      </trkpt>
      <trkpt lat="44.98159" lon="2.7055">
        <ele>1248</ele>
        <time>2020-07-16T16:04:24Z</time>
      </trkpt>
      <trkpt lat="44.98084" lon="2.70419">
        <ele>1240</ele>
        <time>2020-07-16T16:07:03Z</time>
      </trkpt>
      <trkpt lat="44.98032" lon="2.70387">
        <ele>1240</ele>
        <time>2020-07-16T16:08:18Z</time>
      </trkpt>
      <trkpt lat="44.97954" lon="2.70364">
        <ele>1246</ele>
        <time>2020-07-16T16:10:05Z</time>
      </trkpt>
      <trkpt lat="44.97921" lon="2.7032">
        <ele>1244</ele>
        <time>2020-07-16T16:11:05Z</time>
      </trkpt>
      <trkpt lat="44.97878" lon="2.70232">
        <ele>1234</ele>
        <time>2020-07-16T16:12:46Z</time>
      </trkpt>
      <trkpt lat="44.97852" lon="2.70174">
        <ele>1228</ele>
        <time>2020-07-16T16:13:51Z</time>
      </trkpt>
      <trkpt lat="44.9782" lon="2.70132">
        <ele>1224</ele>
        <time>2020-07-16T16:14:49Z</time>
      </trkpt>
      <trkpt lat="44.97784" lon="2.70064">
        <ele>1217</ele>
        <time>2020-07-16T16:16:09Z</time>
      </trkpt>
      <trkpt lat="44.97714" lon="2.70005">
        <ele>1215</ele>
        <time>2020-07-16T16:17:58Z</time>
      </trkpt>
      <trkpt lat="44.97658" lon="2.69957">
        <ele>1212</ele>
        <time>2020-07-16T16:19:26Z</time>
      </trkpt>
      <trkpt lat="44.97595" lon="2.69896">
        <ele>1206</ele>
        <time>2020-07-16T16:21:07Z</time>
      </trkpt>
      <trkpt lat="44.9753" lon="2.69845">
        <ele>1201</ele>
        <time>2020-07-16T16:22:47Z</time>
      </trkpt>
      <trkpt lat="44.97497" lon="2.69813">
        <ele>1197</ele>
        <time>2020-07-16T16:23:40Z</time>
      </trkpt>
      <trkpt lat="44.97441" lon="2.69788">
        <ele>1197</ele>
        <time>2020-07-16T16:24:58Z</time>
      </trkpt>
      <trkpt lat="44.97398" lon="2.69789">
        <ele>1199</ele>
        <time>2020-07-16T16:25:56Z</time>
      </trkpt>
      <trkpt lat="44.9733" lon="2.69836">
        <ele>1201</ele>
        <time>2020-07-16T16:27:37Z</time>
      </trkpt>
      <trkpt lat="44.97197" lon="2.69807">
        <ele>1192</ele>
        <time>2020-07-16T16:30:36Z</time>
      </trkpt>
      <trkpt lat="44.97138" lon="2.69771">
        <ele>1187</ele>
        <time>2020-07-16T16:32:02Z</time>
      </trkpt>
      <trkpt lat="44.97088" lon="2.69716">
        <ele>1183</ele>
        <time>2020-07-16T16:33:27Z</time>
      </trkpt>
      <trkpt lat="44.97018" lon="2.69644">
        <ele>1174</ele>
        <time>2020-07-16T16:35:22Z</time>
      </trkpt>
      <trkpt lat="44.96973" lon="2.69644">
        <ele>1171</ele>
        <time>2020-07-16T16:36:22Z</time>
      </trkpt>
      <trkpt lat="44.96897" lon="2.69648">
        <ele>1165</ele>
        <time>2020-07-16T16:38:04Z</time>
      </trkpt>
      <trkpt lat="44.96815" lon="2.69587">
        <ele>1154</ele>
        <time>2020-07-16T16:40:07Z</time>
      </trkpt>
      <trkpt lat="44.9674" lon="2.69511">
        <ele>1146</ele>
        <time>2020-07-16T16:42:11Z</time>
      </trkpt>
      <trkpt lat="44.96666" lon="2.69434">
        <ele>1141</ele>
        <time>2020-07-16T16:44:13Z</time>
      </trkpt>
      <trkpt lat="44.9664" lon="2.69388">
        <ele>1138</ele>
        <time>2020-07-16T16:45:09Z</time>
      </trkpt>
      <trkpt lat="44.96573" lon="2.69351">
        <ele>1137</ele>
        <time>2020-07-16T16:46:45Z</time>
      </trkpt>
      <trkpt lat="44.96513" lon="2.69307">
        <ele>1133</ele>
        <time>2020-07-16T16:48:15Z</time>
      </trkpt>
      <trkpt lat="44.96453" lon="2.6926">
        <ele>1127</ele>
        <time>2020-07-16T16:49:47Z</time>
      </trkpt>
      <trkpt lat="44.96407" lon="2.69236">
        <ele>1121</ele>
        <time>2020-07-16T16:50:52Z</time>
      </trkpt>
      <trkpt lat="44.96334" lon="2.69163">
        <ele>1115</ele>
        <time>2020-07-16T16:52:51Z</time>
      </trkpt>
      <trkpt lat="44.96294" lon="2.69109">
        <ele>1111</ele>
        <time>2020-07-16T16:54:05Z</time>
      </trkpt>
      <trkpt lat="44.96226" lon="2.69069">
        <ele>1110</ele>
        <time>2020-07-16T16:55:43Z</time>
      </trkpt>
      <trkpt lat="44.96175" lon="2.69026">
        <ele>1108</ele>
        <time>2020-07-16T16:57:03Z</time>
      </trkpt>
      <trkpt lat="44.96099" lon="2.68959">
        <ele>1104</ele>
        <time>2020-07-16T16:59:02Z</time>
      </trkpt>
      <trkpt lat="44.96018" lon="2.68839">
        <ele>1096</ele>
        <time>2020-07-16T17:01:39Z</time>
      </trkpt>
      <trkpt lat="44.95961" lon="2.68765">
        <ele>1091</ele>
        <time>2020-07-16T17:03:22Z</time>
      </trkpt>
      <trkpt lat="44.95897" lon="2.68755">
        <ele>1088</ele>
        <time>2020-07-16T17:04:48Z</time>
      </trkpt>
      <trkpt lat="44.95807" lon="2.68719">
        <ele>1083</ele>
        <time>2020-07-16T17:06:53Z</time>
      </trkpt>
      <trkpt lat="44.95725" lon="2.6866">
        <ele>1075</ele>
        <time>2020-07-16T17:08:56Z</time>
      </trkpt>
      <trkpt lat="44.95647" lon="2.68626">
        <ele>1067</ele>
        <time>2020-07-16T17:10:45Z</time>
      </trkpt>
      <trkpt lat="44.95596" lon="2.68568">
        <ele>1061</ele>
        <time>2020-07-16T17:12:12Z</time>
      </trkpt>
      <trkpt lat="44.95549" lon="2.68542">
        <ele>1055</ele>
        <time>2020-07-16T17:13:19Z</time>
      </trkpt>
      <trkpt lat="44.95507" lon="2.68502">
        <ele>1050</ele>
        <time>2020-07-16T17:14:27Z</time>
      </trkpt>
      <trkpt lat="44.95451" lon="2.68451">
        <ele>1045</ele>
        <time>2020-07-16T17:15:56Z</time>
      </trkpt>
      <trkpt lat="44.95415" lon="2.68391">
        <ele>1041</ele>
        <time>2020-07-16T17:17:10Z</time>
      </trkpt>
      <trkpt lat="44.95364" lon="2.68355">
        <ele>1042</ele>
        <time>2020-07-16T17:18:26Z</time>
      </trkpt>
      <trkpt lat="44.95315" lon="2.68347">
        <ele>1043</ele>
        <time>2020-07-16T17:19:32Z</time>
      </trkpt>
      <trkpt lat="44.95273" lon="2.68314">
        <ele>1044</ele>
        <time>2020-07-16T17:20:36Z</time>
      </trkpt>
      <trkpt lat="44.95269" lon="2.68216">
        <ele>1043</ele>
        <time>2020-07-16T17:22:09Z</time>
      </trkpt>
      <trkpt lat="44.95247" lon="2.68155">
        <ele>1040</ele>
        <time>2020-07-16T17:23:13Z</time>
      </trkpt>
      <trkpt lat="44.95197" lon="2.68079">
        <ele>1043</ele>
        <time>2020-07-16T17:24:51Z</time>
      </trkpt>
      <trkpt lat="44.95141" lon="2.68006">
        <ele>1044</ele>
        <time>2020-07-16T17:26:33Z</time>
      </trkpt>
      <trkpt lat="44.95099" lon="2.67958">
        <ele>1044</ele>
        <time>2020-07-16T17:27:45Z</time>
      </trkpt>
      <trkpt lat="44.94982" lon="2.67929">
        <ele>1044</ele>
        <time>2020-07-16T17:30:24Z</time>
      </trkpt>
      <trkpt lat="44.94908" lon="2.67935">
        <ele>1041</ele>
        <time>2020-07-16T17:32:03Z</time>
      </trkpt>
      <trkpt lat="44.94834" lon="2.67922">
        <ele>1043</ele>
        <time>2020-07-16T17:33:42Z</time>
      </trkpt>
      <trkpt lat="44.9451" lon="2.6785">
        <ele>1040</ele>
        <time>2020-07-16T17:41:00Z</time>
      </trkpt>
      <trkpt lat="44.945" lon="2.67893">
        <ele>1040</ele>
        <time>2020-07-16T17:41:43Z</time>
      </trkpt>
      <trkpt lat="44.94461" lon="2.67932">
        <ele>1038</ele>
        <time>2020-07-16T17:42:46Z</time>
      </trkpt>
      <trkpt lat="44.94217" lon="2.67964">
        <ele>1026</ele>
        <time>2020-07-16T17:48:13Z</time>
      </trkpt>
      <trkpt lat="44.94099" lon="2.67944">
        <ele>1024</ele>
        <time>2020-07-16T17:50:52Z</time>
      </trkpt>
      <trkpt lat="44.94001" lon="2.67951">
        <ele>1022</ele>
        <time>2020-07-16T17:53:03Z</time>
      </trkpt>
      <trkpt lat="44.9387" lon="2.67954">
        <ele>1021</ele>
        <time>2020-07-16T17:55:58Z</time>
      </trkpt>
      <trkpt lat="44.93661" lon="2.68">
        <ele>1014</ele>
        <time>2020-07-16T18:00:40Z</time>
      </trkpt>
      <trkpt lat="44.93617" lon="2.68034">
        <ele>1009</ele>
        <time>2020-07-16T18:01:47Z</time>
      </trkpt>
      <trkpt lat="44.93587" lon="2.68052">
        <ele>1005</ele>
        <time>2020-07-16T18:02:30Z</time>
      </trkpt>
      <trkpt lat="44.93392" lon="2.68023">
        <ele>979</ele>
        <time>2020-07-16T18:06:52Z</time>
      </trkpt>
      <trkpt lat="44.93388" lon="2.68103">
        <ele>979</ele>
        <time>2020-07-16T18:08:08Z</time>
      </trkpt>
      <trkpt lat="44.93406" lon="2.6813">
        <ele>982</ele>
        <time>2020-07-16T18:08:43Z</time>
      </trkpt>
      <trkpt lat="44.93391" lon="2.68215">
        <ele>979</ele>
        <time>2020-07-16T18:10:06Z</time>
      </trkpt>
      <trkpt lat="44.93288" lon="2.68137">
        <ele>967</ele>
        <time>2020-07-16T18:12:42Z</time>
      </trkpt>
      <trkpt lat="44.93169" lon="2.68054">
        <ele>958</ele>
        <time>2020-07-16T18:15:39Z</time>
      </trkpt>
      <trkpt lat="44.93052" lon="2.68048">
        <ele>952</ele>
        <time>2020-07-16T18:18:15Z</time>
      </trkpt>
      <trkpt lat="44.92846" lon="2.68026">
        <ele>940</ele>
        <time>2020-07-16T18:22:51Z</time>
      </trkpt>
      <trkpt lat="44.92781" lon="2.68032">
        <ele>937</ele>
        <time>2020-07-16T18:24:18Z</time>
      </trkpt>
      <trkpt lat="44.92725" lon="2.6801">
        <ele>934</ele>
        <time>2020-07-16T18:25:35Z</time>
      </trkpt>
      <trkpt lat="44.92724" lon="2.67931">
        <ele>928</ele>
        <time>2020-07-16T18:26:50Z</time>
      </trkpt>
      <trkpt lat="44.92622" lon="2.67905">
        <ele>929</ele>
        <time>2020-07-16T18:29:08Z</time>
      </trkpt>
      <trkpt lat="44.92516" lon="2.67876">
        <ele>928</ele>
        <time>2020-07-16T18:31:32Z</time>
      </trkpt>
      <trkpt lat="44.92478" lon="2.6786">
        <ele>926</ele>
        <time>2020-07-16T18:32:25Z</time>
      </trkpt>
      <trkpt lat="44.92428" lon="2.67828">
        <ele>924</ele>
        <time>2020-07-16T18:33:38Z</time>
      </trkpt>
      <trkpt lat="44.92381" lon="2.67802">
        <ele>920</ele>
        <time>2020-07-16T18:34:46Z</time>
      </trkpt>
      <trkpt lat="44.92353" lon="2.6778">
        <ele>918</ele>
        <time>2020-07-16T18:35:28Z</time>
      </trkpt>
      <trkpt lat="44.92313" lon="2.67756">
        <ele>916</ele>
        <time>2020-07-16T18:36:26Z</time>
      </trkpt>
      <trkpt lat="44.92286" lon="2.67738">
        <ele>915</ele>
        <time>2020-07-16T18:37:06Z</time>
      </trkpt>
      <trkpt lat="44.92249" lon="2.67703">
        <ele>914</ele>
        <time>2020-07-16T18:38:06Z</time>
      </trkpt>
      <trkpt lat="44.92219" lon="2.67693">
        <ele>914</ele>
        <time>2020-07-16T18:38:47Z</time>
      </trkpt>
      <trkpt lat="44.92166" lon="2.67711">
        <ele>914</ele>
        <time>2020-07-16T18:40:00Z</time>
      </trkpt>
      <trkpt lat="44.92146" lon="2.67696">
        <ele>915</ele>
        <time>2020-07-16T18:40:30Z</time>
      </trkpt>
      <trkpt lat="44.921" lon="2.67699">
        <ele>915</ele>
        <time>2020-07-16T18:41:31Z</time>
      </trkpt>
      <trkpt lat="44.92055" lon="2.67692">
        <ele>915</ele>
        <time>2020-07-16T18:42:32Z</time>
      </trkpt>
      <trkpt lat="44.92005" lon="2.67702">
        <ele>915</ele>
        <time>2020-07-16T18:43:39Z</time>
      </trkpt>
      <trkpt lat="44.91951" lon="2.67708">
        <ele>915</ele>
        <time>2020-07-16T18:44:51Z</time>
      </trkpt>
      <trkpt lat="44.91897" lon="2.67711">
        <ele>915</ele>
        <time>2020-07-16T18:46:03Z</time>
      </trkpt>
      <trkpt lat="44.91843" lon="2.67726">
        <ele>914</ele>
        <time>2020-07-16T18:47:17Z</time>
      </trkpt>
      <trkpt lat="44.91794" lon="2.67735">
        <ele>914</ele>
        <time>2020-07-16T18:48:23Z</time>
      </trkpt>
      <trkpt lat="44.91742" lon="2.67741">
        <ele>915</ele>
        <time>2020-07-16T18:49:32Z</time>
      </trkpt>
      <trkpt lat="44.91675" lon="2.67772">
        <ele>916</ele>
        <time>2020-07-16T18:51:07Z</time>
      </trkpt>
      <trkpt lat="44.916" lon="2.678">
        <ele>916</ele>
        <time>2020-07-16T18:52:50Z</time>
      </trkpt>
      <trkpt lat="44.91465" lon="2.678">
        <ele>911</ele>
        <time>2020-07-16T18:55:50Z</time>
      </trkpt>
      <trkpt lat="44.91389" lon="2.67828">
        <ele>910</ele>
        <time>2020-07-16T18:57:35Z</time>
      </trkpt>
      <trkpt lat="44.91312" lon="2.67859">
        <ele>906</ele>
        <time>2020-07-16T18:59:22Z</time>
      </trkpt>
      <trkpt lat="44.9126" lon="2.67871">
        <ele>904</ele>
        <time>2020-07-16T19:00:32Z</time>
      </trkpt>
      <trkpt lat="44.91225" lon="2.67865">
        <ele>902</ele>
        <time>2020-07-16T19:01:19Z</time>
      </trkpt>
      <trkpt lat="44.9118" lon="2.67855">
        <ele>899</ele>
        <time>2020-07-16T19:02:20Z</time>
      </trkpt>
      <trkpt lat="44.91105" lon="2.67861">
        <ele>895</ele>
        <time>2020-07-16T19:04:00Z</time>
      </trkpt>
      <trkpt lat="44.91056" lon="2.6786">
        <ele>893</ele>
        <time>2020-07-16T19:05:06Z</time>
      </trkpt>
      <trkpt lat="44.90997" lon="2.67863">
        <ele>891</ele>
        <time>2020-07-16T19:06:24Z</time>
      </trkpt>
      <trkpt lat="44.90916" lon="2.6785">
        <ele>891</ele>
        <time>2020-07-16T19:08:13Z</time>
      </trkpt>
      <trkpt lat="44.90842" lon="2.67853">
        <ele>887</ele>
        <time>2020-07-16T19:09:52Z</time>
      </trkpt>
      <trkpt lat="44.90792" lon="2.6786">
        <ele>879</ele>
        <time>2020-07-16T19:10:59Z</time>
      </trkpt>
      <trkpt lat="44.90752" lon="2.67828">
        <ele>877</ele>
        <time>2020-07-16T19:12:00Z</time>
      </trkpt>
      <trkpt lat="44.90733" lon="2.67789">
        <ele>875</ele>
        <time>2020-07-16T19:12:45Z</time>
      </trkpt>
      <trkpt lat="44.90689" lon="2.67747">
        <ele>875</ele>
        <time>2020-07-16T19:13:56Z</time>
      </trkpt>
      <trkpt lat="44.90517" lon="2.6753">
        <ele>857</ele>
      </trkpt>
      <trkpt lat="44.90179" lon="2.67282">
        <ele>836</ele>
      </trkpt>
      <trkpt lat="44.89879" lon="2.66909">
        <ele>806</ele>
      </trkpt>
      <trkpt lat="44.89836" lon="2.66617">
        <ele>795</ele>
      </trkpt>
      <trkpt lat="44.89881" lon="2.66333">
        <ele>780</ele>
      </trkpt>
      <trkpt lat="44.89904" lon="2.66101">
        <ele>770</ele>
      </trkpt>
      <trkpt lat="44.9004" lon="2.65904">
        <ele>757</ele>
      </trkpt>
    </trkseg>
  </trk>
</gpx>